createdAt,value
2022-08-30T00:01:29.742Z,6.10
2022-08-30T00:03:58.507Z,5.55
2022-08-30T00:06:28.641Z,5.78
2022-08-30T00:08:56.515Z,5.30
2022-08-30T00:11:26.844Z,5.40
2022-08-30T00:13:56.013Z,5.80
2022-08-30T00:16:25.354Z,5.03
2022-08-30T00:18:53.110Z,5.65
2022-08-30T00:21:21.191Z,6.18
2022-08-30T00:23:48.989Z,5.05
2022-08-30T00:26:16.493Z,5.20
2022-08-30T00:28:44.040Z,5.62
2022-08-30T00:31:15.135Z,5.78
2022-08-30T00:33:43.146Z,5.70
2022-08-30T00:36:10.695Z,6.05
2022-08-30T00:38:38.401Z,5.30
2022-08-30T00:41:05.919Z,5.62
2022-08-30T00:43:36.699Z,5.60
2022-08-30T00:46:08.379Z,5.87
2022-08-30T00:48:40.836Z,5.97
2022-08-30T00:51:11.475Z,4.95
2022-08-30T00:53:41.956Z,5.43
2022-08-30T00:56:10.174Z,5.60
2022-08-30T00:58:39.522Z,6.03
2022-08-30T01:01:07.870Z,5.22
2022-08-30T01:03:37.355Z,5.90
2022-08-30T01:06:05.542Z,5.90
2022-08-30T01:08:33.343Z,5.55
2022-08-30T01:11:03.185Z,4.78
2022-08-30T01:13:31.106Z,5.72
2022-08-30T01:16:00.142Z,5.00
2022-08-30T01:18:28.614Z,4.80
2022-08-30T01:21:08.401Z,5.25
2022-08-30T01:23:38.514Z,5.22
2022-08-30T01:26:06.452Z,5.18
2022-08-30T01:28:34.762Z,5.12
2022-08-30T01:31:02.864Z,5.45
2022-08-30T01:33:31.167Z,5.18
2022-08-30T01:36:04.939Z,5.40
2022-08-30T01:38:40.278Z,5.18
2022-08-30T01:41:11.066Z,5.30
2022-08-30T01:43:39.059Z,5.50
2022-08-30T01:46:06.609Z,5.72
2022-08-30T01:48:34.480Z,5.93
2022-08-30T01:51:03.325Z,6.05
2022-08-30T01:53:31.071Z,6.45
2022-08-30T01:55:58.637Z,6.18
2022-08-30T01:58:26.345Z,5.57
2022-08-30T02:00:53.773Z,5.22
2022-08-30T02:03:21.586Z,5.10
2022-08-30T02:05:49.303Z,5.32
2022-08-30T02:08:16.717Z,5.47
2022-08-30T02:10:44.690Z,5.47
2022-08-30T02:13:12.451Z,5.90
2022-08-30T02:15:41.885Z,4.90
2022-08-30T02:18:10.828Z,5.70
2022-08-30T02:20:39.873Z,5.37
2022-08-30T02:23:07.385Z,5.57
2022-08-30T02:25:34.869Z,5.90
2022-08-30T02:28:02.658Z,5.70
2022-08-30T02:30:30.197Z,5.47
2022-08-30T02:32:57.878Z,5.85
2022-08-30T02:35:25.968Z,5.75
2022-08-30T02:37:53.613Z,6.18
2022-08-30T02:40:22.311Z,6.25
2022-08-30T02:42:50.176Z,6.82
2022-08-30T02:45:17.726Z,6.68
2022-08-30T02:47:47.183Z,6.30
2022-08-30T02:50:15.906Z,7.30
2022-08-30T02:52:45.271Z,7.05
2022-08-30T02:55:16.799Z,7.57
2022-08-30T02:57:44.667Z,7.53
2022-08-30T03:00:14.751Z,7.10
2022-08-30T03:02:42.680Z,7.07
2022-08-30T03:05:13.021Z,7.90
2022-08-30T03:07:41.612Z,7.32
2022-08-30T03:10:10.002Z,7.20
2022-08-30T03:12:37.727Z,6.70
2022-08-30T03:15:06.556Z,6.80
2022-08-30T03:17:35.041Z,7.35
2022-08-30T03:20:03.723Z,7.10
2022-08-30T03:22:31.317Z,7.32
2022-08-30T03:25:00.218Z,6.95
2022-08-30T03:27:28.590Z,7.50
2022-08-30T03:29:56.251Z,8.35
2022-08-30T03:32:24.659Z,7.45
2022-08-30T03:34:52.056Z,7.45
2022-08-30T03:37:23.313Z,8.52
2022-08-30T03:39:55.606Z,7.78
2022-08-30T03:42:23.140Z,7.85
2022-08-30T03:44:52.404Z,8.30
2022-08-30T03:47:20.960Z,8.40
2022-08-30T03:49:48.479Z,8.20
2022-08-30T03:52:15.957Z,8.30
2022-08-30T03:54:44.128Z,8.10
2022-08-30T03:57:13.406Z,7.35
2022-08-30T03:59:48.049Z,8.18
2022-08-30T04:02:15.564Z,7.65
2022-08-30T04:04:43.334Z,8.35
2022-08-30T04:07:10.721Z,8.27
2022-08-30T04:09:38.285Z,7.40
2022-08-30T04:12:06.063Z,7.82
2022-08-30T04:14:33.607Z,7.53
2022-08-30T04:17:01.000Z,7.65
2022-08-30T04:19:28.799Z,7.20
2022-08-30T04:21:57.355Z,7.45
2022-08-30T04:24:25.518Z,7.85
2022-08-30T04:26:53.207Z,7.85
2022-08-30T04:29:20.624Z,6.97
2022-08-30T04:31:48.124Z,7.18
2022-08-30T04:34:15.848Z,7.53
2022-08-30T04:36:48.277Z,8.40
2022-08-30T04:39:17.772Z,7.82
2022-08-30T04:41:45.490Z,7.97
2022-08-30T04:44:16.780Z,7.93
2022-08-30T04:46:47.784Z,8.00
2022-08-30T04:49:15.371Z,7.82
2022-08-30T04:51:42.920Z,7.55
2022-08-30T04:54:10.628Z,8.02
2022-08-30T04:56:38.164Z,7.68
2022-08-30T04:59:05.826Z,8.65
2022-08-30T05:01:36.735Z,8.07
2022-08-30T05:04:14.790Z,7.40
2022-08-30T05:06:43.326Z,7.80
2022-08-30T05:09:11.305Z,7.50
2022-08-30T05:11:38.970Z,8.30
2022-08-30T05:14:06.835Z,7.80
2022-08-30T05:16:34.419Z,7.78
2022-08-30T05:19:02.097Z,8.23
2022-08-30T05:21:29.922Z,8.35
2022-08-30T05:24:00.168Z,8.13
2022-08-30T05:26:30.551Z,7.70
2022-08-30T05:28:58.637Z,7.72
2022-08-30T05:31:35.029Z,7.72
2022-08-30T05:34:03.018Z,8.45
2022-08-30T05:36:32.473Z,8.38
2022-08-30T05:39:01.342Z,8.32
2022-08-30T05:41:30.039Z,8.20
2022-08-30T05:43:59.481Z,8.57
2022-08-30T05:49:07.398Z,8.52
2022-08-30T05:51:35.844Z,8.43
2022-08-30T05:54:09.166Z,8.40
2022-08-30T05:56:38.949Z,8.43
2022-08-30T05:59:07.738Z,8.85
2022-08-30T06:01:44.482Z,8.70
2022-08-30T06:04:13.855Z,8.88
2022-08-30T06:06:43.162Z,9.50
2022-08-30T06:09:12.337Z,8.85
2022-08-30T06:11:41.002Z,7.05
2022-08-30T06:14:09.021Z,8.68
2022-08-30T06:16:38.866Z,7.57
2022-08-30T06:19:08.602Z,7.28
2022-08-30T06:21:37.752Z,7.65
2022-08-30T06:24:06.899Z,6.72
2022-08-30T06:26:38.986Z,7.05
2022-08-30T06:29:06.543Z,6.20
2022-08-30T06:31:34.458Z,5.80
2022-08-30T06:34:02.628Z,5.65
2022-08-30T06:36:30.109Z,6.40
2022-08-30T06:38:58.677Z,5.60
2022-08-30T06:41:28.958Z,5.95
2022-08-30T06:43:58.363Z,5.47
2022-08-30T06:46:32.641Z,6.20
2022-08-30T06:49:00.641Z,5.62
2022-08-30T06:51:31.583Z,5.55
2022-08-30T06:53:59.450Z,5.12
2022-08-30T06:56:27.605Z,5.47
2022-08-30T06:58:55.815Z,5.10
2022-08-30T07:01:27.631Z,5.12
2022-08-30T07:03:55.878Z,5.70
2022-08-30T07:06:25.289Z,5.30
2022-08-30T07:08:56.027Z,5.43
2022-08-30T07:11:35.685Z,5.28
2022-08-30T07:14:03.936Z,4.93
2022-08-30T07:16:32.270Z,4.82
2022-08-30T07:19:00.494Z,5.40
2022-08-30T07:21:31.889Z,5.65
2022-08-30T07:24:00.545Z,5.20
2022-08-30T07:26:32.377Z,4.75
2022-08-30T07:29:00.669Z,4.75
2022-08-30T07:31:28.805Z,4.43
2022-08-30T07:33:56.611Z,4.60
2022-08-30T07:36:24.826Z,4.43
2022-08-30T07:38:52.498Z,4.40
2022-08-30T07:41:23.631Z,4.18
2022-08-30T07:43:51.705Z,4.90
2022-08-30T07:46:20.012Z,4.50
2022-08-30T07:48:48.183Z,4.47
2022-08-30T07:51:19.761Z,4.20
2022-08-30T07:53:50.040Z,4.35
2022-08-30T07:56:17.932Z,4.35
2022-08-30T07:58:45.380Z,4.62
2022-08-30T08:01:13.674Z,4.32
2022-08-30T08:03:43.056Z,4.05
2022-08-30T08:06:12.442Z,4.35
2022-08-30T08:08:40.494Z,4.18
2022-08-30T08:11:16.193Z,4.50
2022-08-30T08:13:53.741Z,4.45
2022-08-30T08:16:25.715Z,4.20
2022-08-30T08:18:54.532Z,4.40
2022-08-30T08:21:24.615Z,4.05
2022-08-30T08:23:52.345Z,4.03
2022-08-30T08:26:20.822Z,3.80
2022-08-30T08:28:49.076Z,3.90
2022-08-30T08:31:27.228Z,3.95
2022-08-30T08:34:04.319Z,4.10
2022-08-30T08:36:33.197Z,4.35
2022-08-30T08:39:01.643Z,4.07
2022-08-30T08:41:51.827Z,4.00
2022-08-30T08:44:34.410Z,4.22
2022-08-30T08:47:30.867Z,3.85
2022-08-30T08:50:04.166Z,3.97
2022-08-30T08:53:20.449Z,4.22
2022-08-30T08:55:53.737Z,3.87
2022-08-30T08:58:29.258Z,4.55
2022-08-30T09:00:59.106Z,4.45
2022-08-30T09:03:29.028Z,3.97
2022-08-30T09:05:58.254Z,4.05
2022-08-30T09:08:25.732Z,3.70
2022-08-30T09:11:00.296Z,4.22
2022-08-30T09:13:28.454Z,4.20
2022-08-30T09:15:59.575Z,3.45
2022-08-30T09:18:54.612Z,4.18
2022-08-30T09:21:25.133Z,4.00
2022-08-30T09:24:01.288Z,3.97
2022-08-30T09:26:36.728Z,4.20
2022-08-30T09:29:06.055Z,4.47
2022-08-30T09:32:22.596Z,4.50
2022-08-30T09:34:43.907Z,4.53
2022-08-30T09:37:31.941Z,4.18
2022-08-30T09:40:00.565Z,4.40
2022-08-30T09:42:30.069Z,3.92
2022-08-30T09:45:10.508Z,4.60
2022-08-30T09:47:41.597Z,4.20
2022-08-30T09:50:19.936Z,4.85
2022-08-30T09:53:01.203Z,3.95
2022-08-30T09:55:41.677Z,4.15
2022-08-30T09:58:29.919Z,4.20
2022-08-30T10:01:17.144Z,4.20
2022-08-30T10:04:02.686Z,4.25
2022-08-30T10:06:58.085Z,4.40
2022-08-30T10:09:36.505Z,4.37
2022-08-30T10:12:42.341Z,4.65
2022-08-30T10:15:33.911Z,4.57
2022-08-30T10:18:17.667Z,4.00
2022-08-30T10:21:26.384Z,4.50
2022-08-30T10:24:13.085Z,4.55
2022-08-30T10:29:30.814Z,4.60
2022-08-30T10:32:11.512Z,4.12
2022-08-30T10:34:41.581Z,5.00
2022-08-30T10:37:27.589Z,4.78
2022-08-30T10:40:00.699Z,5.07
2022-08-30T10:45:06.073Z,4.25
2022-08-30T10:47:55.750Z,4.53
2022-08-30T10:50:33.841Z,4.50
2022-08-30T10:53:09.949Z,4.50
2022-08-30T10:55:49.455Z,4.85
2022-08-30T10:58:19.241Z,4.90
2022-08-30T11:01:12.544Z,4.60
2022-08-30T11:03:53.106Z,4.20
2022-08-30T11:06:39.790Z,4.68
2022-08-30T11:09:16.900Z,4.30
2022-08-30T11:12:05.629Z,4.25
2022-08-30T11:14:33.983Z,4.30
2022-08-30T11:17:02.166Z,4.50
2022-08-30T11:19:37.724Z,4.57
2022-08-30T11:22:18.681Z,4.45
2022-08-30T11:25:10.233Z,4.78
2022-08-30T11:27:51.478Z,3.83
2022-08-30T11:30:26.470Z,4.37
2022-08-30T11:33:13.000Z,4.10
2022-08-30T11:35:49.868Z,4.12
2022-08-30T11:38:40.214Z,4.65
2022-08-30T11:41:12.053Z,4.28
2022-08-30T11:43:42.832Z,4.03
2022-08-30T11:46:36.724Z,4.43
2022-08-30T11:49:16.521Z,4.72
2022-08-30T11:52:02.926Z,4.55
2022-08-30T11:54:54.039Z,4.68
2022-08-30T11:57:32.029Z,4.35
2022-08-30T12:00:34.926Z,4.40
2022-08-30T12:03:06.307Z,4.55
2022-08-30T12:05:45.979Z,4.18
2022-08-30T12:08:28.195Z,4.35
2022-08-30T12:11:02.311Z,4.32
2022-08-30T12:16:11.682Z,3.97
2022-08-30T12:18:39.296Z,5.00
2022-08-30T12:21:20.082Z,4.10
2022-08-30T12:23:52.419Z,3.80
2022-08-30T12:26:25.135Z,4.37
2022-08-30T12:29:25.460Z,4.25
2022-08-30T12:32:05.598Z,4.20
2022-08-30T12:34:50.167Z,4.03
2022-08-30T12:37:25.142Z,4.18
2022-08-30T12:40:13.023Z,4.37
2022-08-30T12:42:55.978Z,4.65
2022-08-30T12:45:34.281Z,4.20
2022-08-30T12:48:08.333Z,4.00
2022-08-30T12:50:43.714Z,4.30
2022-08-30T12:53:14.175Z,4.50
2022-08-30T12:56:01.495Z,4.10
2022-08-30T12:58:49.580Z,4.55
2022-08-30T13:01:32.419Z,3.95
2022-08-30T13:04:13.521Z,3.85
2022-08-30T13:06:54.091Z,4.00
2022-08-30T13:09:34.890Z,4.00
2022-08-30T13:12:04.933Z,4.10
2022-08-30T13:14:44.678Z,3.50
2022-08-30T13:17:18.718Z,4.00
2022-08-30T13:19:58.777Z,4.20
2022-08-30T13:22:32.421Z,4.20
2022-08-30T13:25:00.406Z,3.92
2022-08-30T13:27:29.517Z,4.12
2022-08-30T13:29:58.127Z,3.85
2022-08-30T13:32:25.524Z,3.83
2022-08-30T13:34:53.297Z,3.83
2022-08-30T13:40:13.059Z,3.70
2022-08-30T13:42:42.846Z,3.78
2022-08-30T13:48:00.481Z,3.65
2022-08-30T13:50:28.757Z,4.00
2022-08-30T13:52:58.209Z,3.90
2022-08-30T13:55:26.479Z,3.60
2022-08-30T13:57:56.437Z,3.83
2022-08-30T14:00:25.495Z,4.25
2022-08-30T14:02:57.330Z,3.95
2022-08-30T14:05:48.878Z,3.95
2022-08-30T14:11:16.111Z,3.92
2022-08-30T14:16:36.571Z,3.70
2022-08-30T14:19:04.837Z,3.50
2022-08-30T14:21:33.284Z,3.55
2022-08-30T14:24:01.053Z,3.25
2022-08-30T14:26:33.489Z,3.67
2022-08-30T14:29:03.944Z,3.20
2022-08-30T14:31:32.949Z,3.30
2022-08-30T14:34:05.462Z,3.33
2022-08-30T14:36:35.286Z,3.55
2022-08-30T14:39:06.261Z,3.28
2022-08-30T14:41:43.648Z,3.30
2022-08-30T14:44:13.128Z,3.20
2022-08-30T14:46:41.775Z,3.60
2022-08-30T14:49:11.321Z,3.85
2022-08-30T14:51:39.399Z,3.60
2022-08-30T14:54:07.697Z,3.45
2022-08-30T14:56:36.874Z,4.05
2022-08-30T14:59:04.277Z,3.30
2022-08-30T15:01:33.303Z,3.65
2022-08-30T15:04:07.322Z,3.67
2022-08-30T15:06:37.298Z,3.58
2022-08-30T15:09:06.593Z,4.20
2022-08-30T15:11:34.772Z,3.97
2022-08-30T15:14:02.610Z,4.00
2022-08-30T15:16:33.095Z,3.85
2022-08-30T15:19:01.601Z,4.12
2022-08-30T15:21:32.492Z,3.83
2022-08-30T15:24:01.599Z,4.15
2022-08-30T15:26:29.554Z,4.35
2022-08-30T15:28:57.433Z,4.18
2022-08-30T15:31:28.529Z,4.10
2022-08-30T15:33:57.903Z,4.65
2022-08-30T15:36:27.472Z,4.03
2022-08-30T15:38:56.604Z,4.32
2022-08-30T15:41:24.415Z,3.95
2022-08-30T15:43:55.310Z,4.30
2022-08-30T15:46:30.226Z,3.95
2022-08-30T15:49:16.126Z,3.80
2022-08-30T15:51:46.247Z,4.07
2022-08-30T15:54:16.494Z,3.80
2022-08-30T15:56:44.872Z,3.78
2022-08-30T15:59:15.285Z,4.05
2022-08-30T16:01:43.918Z,4.10
2022-08-30T16:04:12.241Z,3.40
2022-08-30T16:06:39.912Z,3.90
2022-08-30T16:09:10.636Z,4.10
2022-08-30T16:11:38.712Z,3.85
2022-08-30T16:14:06.805Z,3.65
2022-08-30T16:16:37.606Z,4.22
2022-08-30T16:19:05.836Z,3.72
2022-08-30T16:21:36.911Z,4.28
2022-08-30T16:24:23.462Z,3.95
2022-08-30T16:26:51.753Z,3.72
2022-08-30T16:29:19.329Z,3.65
2022-08-30T16:31:47.654Z,4.35
2022-08-30T16:34:17.541Z,3.55
2022-08-30T16:36:45.876Z,3.70
2022-08-30T16:39:14.016Z,3.67
2022-08-30T16:41:44.799Z,3.90
2022-08-30T16:44:13.712Z,3.25
2022-08-30T16:46:43.827Z,3.50
2022-08-30T16:49:20.322Z,3.55
2022-08-30T16:51:50.723Z,3.65
2022-08-30T16:54:18.184Z,3.22
2022-08-30T16:56:45.900Z,3.25
2022-08-30T16:59:14.617Z,3.20
2022-08-30T17:01:43.469Z,3.42
2022-08-30T17:04:12.946Z,2.90
2022-08-30T17:06:43.849Z,3.62
2022-08-30T17:09:11.299Z,3.15
2022-08-30T17:11:40.306Z,3.22
2022-08-30T17:14:08.741Z,3.10
2022-08-30T17:16:38.712Z,3.78
2022-08-30T17:19:09.164Z,3.42
2022-08-30T17:21:37.037Z,3.20
2022-08-30T17:24:06.821Z,2.90
2022-08-30T17:26:37.042Z,3.35
2022-08-30T17:29:05.971Z,3.10
2022-08-30T17:31:37.493Z,2.70
2022-08-30T17:34:05.902Z,3.37
2022-08-30T17:36:36.440Z,3.25
2022-08-30T17:39:11.166Z,3.33
2022-08-30T17:41:45.238Z,3.17
2022-08-30T17:44:25.617Z,3.25
2022-08-30T17:46:53.994Z,3.12
2022-08-30T17:49:22.555Z,3.03
2022-08-30T17:51:56.112Z,3.42
2022-08-30T17:54:26.616Z,2.95
2022-08-30T17:56:54.810Z,3.45
2022-08-30T17:59:25.126Z,3.08
2022-08-30T18:01:54.835Z,3.08
2022-08-30T18:04:25.009Z,3.62
2022-08-30T18:06:53.327Z,3.55
2022-08-30T18:09:21.447Z,3.10
2022-08-30T18:11:49.795Z,3.00
2022-08-30T18:14:17.435Z,4.10
2022-08-30T18:16:53.812Z,3.10
2022-08-30T18:19:23.839Z,3.03
2022-08-30T18:21:52.179Z,3.30
2022-08-30T18:24:20.177Z,3.40
2022-08-30T18:26:48.035Z,3.65
2022-08-30T18:29:26.167Z,3.75
2022-08-30T18:31:59.449Z,3.33
2022-08-30T18:34:27.048Z,3.00
2022-08-30T18:36:54.550Z,3.47
2022-08-30T18:39:23.045Z,3.65
2022-08-30T18:41:51.110Z,3.90
2022-08-30T18:44:33.470Z,3.40
2022-08-30T18:47:03.727Z,3.42
2022-08-30T18:49:32.861Z,3.40
2022-08-30T18:52:02.092Z,3.90
2022-08-30T18:54:29.940Z,3.40
2022-08-30T18:56:58.278Z,3.40
2022-08-30T18:59:35.693Z,3.30
2022-08-30T19:02:10.489Z,3.50
2022-08-30T19:04:39.232Z,3.22
2022-08-30T19:07:12.693Z,2.92
2022-08-30T19:09:41.432Z,3.37
2022-08-30T19:14:59.681Z,3.40
2022-08-30T19:17:28.818Z,3.05
2022-08-30T19:19:56.493Z,3.60
2022-08-30T19:22:28.653Z,4.40
2022-08-30T19:25:01.309Z,3.40
2022-08-30T19:27:38.482Z,3.83
2022-08-30T19:30:11.171Z,3.60
2022-08-30T19:32:38.654Z,3.58
2022-08-30T19:35:07.822Z,3.47
2022-08-30T19:37:36.718Z,3.50
2022-08-30T19:40:06.917Z,3.67
2022-08-30T19:42:38.438Z,3.75
2022-08-30T19:45:13.201Z,3.35
2022-08-30T19:47:40.883Z,3.85
2022-08-30T19:50:08.851Z,3.70
2022-08-30T19:52:37.627Z,3.20
2022-08-30T19:55:07.236Z,3.40
2022-08-30T19:57:35.666Z,3.22
2022-08-30T20:00:06.887Z,3.15
2022-08-30T20:02:39.887Z,3.47
2022-08-30T20:05:09.328Z,3.22
2022-08-30T20:07:37.661Z,4.07
2022-08-30T20:10:08.296Z,4.28
2022-08-30T20:12:36.521Z,4.00
2022-08-30T20:15:10.320Z,3.60
2022-08-30T20:18:02.835Z,3.95
2022-08-30T20:20:27.102Z,3.87
2022-08-30T20:22:56.905Z,3.30
2022-08-30T20:24:32.127Z,3.62
2022-08-30T20:25:24.914Z,3.33
2022-08-30T20:27:52.680Z,3.75
2022-08-30T20:30:20.829Z,3.75
2022-08-30T20:32:48.417Z,3.87
2022-08-30T20:35:17.615Z,3.55
2022-08-30T20:37:45.876Z,3.90
2022-08-30T20:40:15.956Z,3.58
2022-08-30T20:42:45.713Z,3.60
2022-08-30T20:45:16.186Z,3.53
2022-08-30T20:47:44.155Z,3.72
2022-08-30T20:50:14.370Z,4.25
2022-08-30T20:52:42.417Z,4.05
2022-08-30T20:55:11.492Z,4.20
2022-08-30T20:57:39.748Z,5.28
2022-08-30T21:00:11.100Z,4.60
2022-08-30T21:02:42.700Z,4.40
2022-08-30T21:05:15.792Z,4.80
2022-08-30T21:07:46.201Z,4.80
2022-08-30T21:10:14.219Z,4.50
2022-08-30T21:12:43.025Z,4.68
2022-08-30T21:15:33.898Z,5.00
2022-08-30T21:18:00.624Z,4.65
2022-08-30T21:20:28.873Z,4.28
2022-08-30T21:22:56.433Z,3.37
2022-08-30T21:25:24.190Z,4.22
2022-08-30T21:27:53.126Z,4.10
2022-08-30T21:30:20.739Z,4.57
2022-08-30T21:32:48.513Z,4.68
2022-08-30T21:35:36.392Z,4.87
2022-08-30T21:38:06.630Z,4.45
2022-08-30T21:40:34.120Z,4.60
2022-08-30T21:43:05.664Z,5.40
2022-08-30T21:45:41.282Z,4.30
2022-08-30T21:48:09.379Z,4.43
2022-08-30T21:50:41.827Z,4.20
2022-08-30T21:53:09.688Z,4.47
2022-08-30T21:55:37.518Z,4.80
2022-08-30T21:58:05.151Z,5.60
2022-08-30T22:00:33.686Z,4.68
2022-08-30T22:03:01.473Z,4.87
2022-08-30T22:05:29.024Z,4.97
2022-08-30T22:07:56.623Z,4.70
2022-08-30T22:10:24.619Z,4.53
2022-08-30T22:12:52.113Z,4.62
2022-08-30T22:15:19.567Z,4.82
2022-08-30T22:17:47.345Z,5.20
2022-08-30T22:20:18.531Z,5.62
2022-08-30T22:22:46.199Z,5.60
2022-08-30T22:25:14.021Z,5.68
2022-08-30T22:27:41.423Z,5.30
2022-08-30T22:30:09.335Z,5.82
2022-08-30T22:32:38.269Z,4.75
2022-08-30T22:35:06.616Z,5.30
2022-08-30T22:37:34.860Z,5.45
2022-08-30T22:40:02.965Z,5.00
2022-08-30T22:42:30.663Z,4.68
2022-08-30T22:44:58.215Z,5.15
2022-08-30T22:47:25.949Z,4.35
2022-08-30T22:49:53.370Z,4.25
2022-08-30T22:52:22.132Z,4.10
2022-08-30T22:54:53.310Z,4.57
2022-08-30T22:57:20.790Z,4.43
2022-08-30T22:59:48.724Z,4.60
2022-08-30T23:02:16.676Z,4.57
2022-08-30T23:04:44.176Z,4.25
2022-08-30T23:07:11.674Z,4.60
2022-08-30T23:09:39.406Z,3.92
2022-08-30T23:12:06.919Z,4.28
2022-08-30T23:14:34.390Z,4.32
2022-08-30T23:17:02.205Z,3.97
2022-08-30T23:19:29.647Z,4.10
2022-08-30T23:21:57.499Z,4.12
2022-08-30T23:24:48.801Z,4.28
2022-08-30T23:27:35.541Z,4.43
2022-08-30T23:30:24.800Z,4.28
2022-08-30T23:33:10.850Z,4.10
2022-08-30T23:35:57.226Z,4.03
2022-08-30T23:38:43.902Z,4.15
2022-08-30T23:41:33.943Z,4.75
2022-08-30T23:44:20.349Z,4.62
2022-08-30T23:47:07.267Z,4.30
2022-08-30T23:49:53.386Z,4.40
2022-08-30T23:52:39.680Z,4.40
2022-08-30T23:55:26.278Z,4.20
2022-08-30T23:58:12.794Z,4.07
